Crystal, Michigan
Current Conditions -  °F | °C
As of 11:53 AM on Saturday 25 Oct 2014 (Local Time) from KAMN Reporting Station
Scattered Clouds Scattered Clouds  
Wind Chill: 61°   Ceiling: Unl
Heat Index: 61°   Visibility: 10mi
Dew Point: 51°   Wind: 14mph
Humidity: 68%   Direction: 260°W
Pressure: 29.79"   Gusts: 24mph
Location:  43.26°N, 84.91°W
Report Text: KAMN 251553Z AUTO 26012G21KT 10SM SCT020 16/10 A2979 RMK AO2 T01620103
Loading
Personal Weather Stations






























Interactive Weather Map
Tropical Storm Tracking
New forecast layout! Learn more

10-Day Weather Forecast

Advertisements
Track Severe Weather on mobile